createdAt,value
2022-08-09T00:00:24.049Z,101884.72
2022-08-09T00:02:55.597Z,101878.25
2022-08-09T00:08:31.661Z,101887.16
2022-08-09T00:11:05.972Z,101891.88
2022-08-09T00:13:57.963Z,101882.75
2022-08-09T00:16:38.356Z,101883.72
2022-08-09T00:19:14.585Z,101887.34
2022-08-09T00:21:55.950Z,101891.75
2022-08-09T00:24:32.616Z,101886.34
2022-08-09T00:27:06.514Z,101889.75
2022-08-09T00:29:39.445Z,101880.38
2022-08-09T00:32:27.016Z,101881.88
2022-08-09T00:34:56.744Z,101880.94
2022-08-09T00:37:32.357Z,101880.16
2022-08-09T00:40:12.113Z,101874.41
2022-08-09T00:44:15.772Z,101876.66
2022-08-09T00:46:57.500Z,101875.44
2022-08-09T00:49:38.543Z,101867.78
2022-08-09T00:52:17.385Z,101877.41
2022-08-09T00:55:04.664Z,101875.06
2022-08-09T00:57:35.907Z,101868.34
2022-08-09T01:00:21.296Z,101863.81
2022-08-09T01:03:50.188Z,101878.50
2022-08-09T01:06:54.521Z,101867.63
2022-08-09T01:10:20.025Z,101873.13
2022-08-09T01:13:58.644Z,101873.81
2022-08-09T01:17:16.094Z,101878.94
2022-08-09T01:24:15.188Z,101868.34
2022-08-09T01:27:10.875Z,101874.22
2022-08-09T01:30:08.905Z,101869.94
2022-08-09T01:33:36.575Z,101870.59
2022-08-09T01:36:20.210Z,101871.53
2022-08-09T01:39:02.956Z,101875.41
2022-08-09T01:41:53.445Z,101876.03
2022-08-09T01:44:25.839Z,101871.88
2022-08-09T01:46:55.094Z,101873.56
2022-08-09T01:49:27.368Z,101878.13
2022-08-09T01:52:19.421Z,101870.25
2022-08-09T01:58:49.815Z,101878.16
2022-08-09T02:01:58.511Z,101882.63
2022-08-09T02:04:30.181Z,101884.56
2022-08-09T02:07:15.418Z,101877.63
2022-08-09T02:10:40.502Z,101886.25
2022-08-09T02:13:26.205Z,101884.66
2022-08-09T02:16:59.389Z,101883.13
2022-08-09T02:20:02.365Z,101887.69
2022-08-09T02:22:48.892Z,101879.44
2022-08-09T02:26:24.900Z,101886.81
2022-08-09T02:29:48.557Z,101886.66
2022-08-09T02:32:55.928Z,101890.75
2022-08-09T02:36:03.262Z,101883.88
2022-08-09T02:38:53.636Z,101885.97
2022-08-09T02:41:59.472Z,101884.53
2022-08-09T02:45:41.122Z,101887.16
2022-08-09T02:48:30.890Z,101880.22
2022-08-09T02:51:02.672Z,101882.03
2022-08-09T02:54:03.180Z,101882.69
2022-08-09T02:57:13.848Z,101890.53
2022-08-09T03:00:32.632Z,101884.25
2022-08-09T03:03:37.349Z,101889.34
2022-08-09T03:07:18.082Z,101890.53
2022-08-09T03:10:05.630Z,101887.97
2022-08-09T03:12:52.086Z,101889.47
2022-08-09T03:16:22.185Z,101894.16
2022-08-09T03:18:58.147Z,101886.44
2022-08-09T03:21:51.831Z,101886.44
2022-08-09T03:24:52.326Z,101892.09
2022-08-09T03:27:55.380Z,101886.53
2022-08-09T03:40:31.016Z,101908.41
2022-08-09T03:42:59.136Z,101902.19
2022-08-09T03:46:05.178Z,101901.03
2022-08-09T03:48:19.111Z,101905.78
2022-08-09T03:51:56.612Z,101909.41
2022-08-09T03:54:29.150Z,101903.06
2022-08-09T03:57:17.987Z,101905.22
2022-08-09T04:00:04.186Z,101913.25
2022-08-09T04:02:33.918Z,101908.78
2022-08-09T04:05:28.468Z,101915.97
2022-08-09T04:08:04.784Z,101916.00
2022-08-09T04:10:32.145Z,101924.94
2022-08-09T04:14:37.417Z,101915.63
2022-08-09T04:16:21.779Z,101914.44
2022-08-09T04:18:55.493Z,101910.44
2022-08-09T04:21:40.173Z,101919.69
2022-08-09T04:24:09.087Z,101915.84
2022-08-09T04:26:51.393Z,101922.91
2022-08-09T04:29:21.633Z,101918.44
2022-08-09T04:31:57.823Z,101930.66
2022-08-09T04:34:31.703Z,101932.72
2022-08-09T04:37:03.042Z,101937.97
2022-08-09T04:39:31.231Z,101936.97
2022-08-09T04:42:02.623Z,101937.97
2022-08-09T04:44:49.111Z,101940.16
2022-08-09T04:47:17.247Z,101935.44
2022-08-09T04:49:54.690Z,101944.41
2022-08-09T04:52:37.268Z,101944.88
2022-08-09T04:55:07.267Z,101953.78
2022-08-09T04:57:54.250Z,101952.28
2022-08-09T05:00:26.451Z,101957.63
2022-08-09T05:03:42.837Z,101954.81
2022-08-09T05:06:06.946Z,101969.03
2022-08-09T05:08:36.015Z,101962.25
2022-08-09T05:11:03.919Z,101969.53
2022-08-09T05:13:38.682Z,101978.00
2022-08-09T05:16:11.943Z,101968.19
2022-08-09T05:18:57.306Z,101963.84
2022-08-09T05:21:36.416Z,101978.53
2022-08-09T05:24:14.344Z,101969.16
2022-08-09T05:26:46.029Z,101966.72
2022-08-09T05:29:49.539Z,101970.22
2022-08-09T05:35:07.120Z,101982.59
2022-08-09T05:37:47.848Z,101978.72
2022-08-09T05:40:33.760Z,101987.69
2022-08-09T05:43:13.300Z,101988.34
2022-08-09T05:45:55.643Z,101988.03
2022-08-09T05:48:29.879Z,101995.84
2022-08-09T05:51:29.935Z,101990.50
2022-08-09T05:54:00.692Z,101990.13
2022-08-09T05:56:28.660Z,101975.31
2022-08-09T05:59:06.013Z,101987.34
2022-08-09T06:01:46.909Z,101982.72
2022-08-09T06:05:05.516Z,101990.25
2022-08-09T06:07:38.559Z,101986.97
2022-08-09T06:10:17.906Z,101991.53
2022-08-09T06:13:12.522Z,101990.66
2022-08-09T06:16:11.248Z,101988.66
2022-08-09T06:18:45.426Z,102002.50
2022-08-09T06:21:12.608Z,101994.34
2022-08-09T06:23:54.933Z,101985.13
2022-08-09T06:26:28.576Z,102000.75
2022-08-09T06:29:00.035Z,102002.22
2022-08-09T06:31:40.095Z,102007.50
2022-08-09T06:34:29.828Z,102016.72
2022-08-09T06:37:04.401Z,102016.41
2022-08-09T06:40:03.557Z,102018.00
2022-08-09T06:42:48.121Z,102018.56
2022-08-09T06:46:05.557Z,102015.88
2022-08-09T06:48:05.414Z,102012.72
2022-08-09T06:50:36.069Z,102015.53
2022-08-09T06:53:04.813Z,102014.81
2022-08-09T06:55:33.280Z,102023.41
2022-08-09T06:58:04.552Z,102016.59
2022-08-09T07:00:54.930Z,102020.13
2022-08-09T07:03:29.763Z,102027.69
2022-08-09T07:06:05.175Z,102019.56
2022-08-09T07:08:39.538Z,102023.53
2022-08-09T07:11:07.584Z,102027.88
2022-08-09T07:13:45.159Z,102027.19
2022-08-09T07:16:43.303Z,102024.97
2022-08-09T07:19:15.707Z,102033.44
2022-08-09T07:21:57.624Z,102027.25
2022-08-09T07:24:31.949Z,102035.66
2022-08-09T07:27:01.776Z,102035.50
2022-08-09T07:29:30.884Z,102038.69
2022-08-09T07:32:09.771Z,102035.41
2022-08-09T07:34:39.827Z,102033.03
2022-08-09T07:37:10.883Z,102044.22
2022-08-09T07:39:48.986Z,102041.59
2022-08-09T07:42:19.054Z,102045.34
2022-08-09T07:44:56.235Z,102040.78
2022-08-09T07:47:25.047Z,102042.06
2022-08-09T07:50:08.033Z,102043.44
2022-08-09T07:52:36.555Z,102038.00
2022-08-09T07:55:12.651Z,102042.34
2022-08-09T07:58:01.827Z,102036.53
2022-08-09T08:00:56.189Z,102036.16
2022-08-09T08:03:39.506Z,102045.94
2022-08-09T08:06:15.970Z,102040.31
2022-08-09T08:09:00.878Z,102047.78
2022-08-09T08:12:11.437Z,102041.19
2022-08-09T08:14:37.941Z,102038.03
2022-08-09T08:17:35.420Z,102032.34
2022-08-09T08:20:02.403Z,102032.97
2022-08-09T08:22:51.973Z,102033.88
2022-08-09T08:25:25.729Z,102028.53
2022-08-09T08:28:25.625Z,102029.25
2022-08-09T08:31:14.384Z,102038.59
2022-08-09T08:33:55.860Z,102032.44
2022-08-09T08:36:28.848Z,102027.75
2022-08-09T08:38:57.840Z,102027.06
2022-08-09T08:41:51.097Z,102030.44
2022-08-09T08:44:22.991Z,102034.44
2022-08-09T08:47:12.421Z,102028.59
2022-08-09T08:49:47.005Z,102032.53
2022-08-09T08:55:35.413Z,102024.97
2022-08-09T08:58:06.992Z,102039.47
2022-08-09T09:00:35.048Z,102041.50
2022-08-09T09:03:12.071Z,102035.19
2022-08-09T09:06:00.586Z,102030.06
2022-08-09T09:11:26.175Z,102038.28
2022-08-09T09:13:58.469Z,102037.16
2022-08-09T09:16:34.599Z,102041.38
2022-08-09T09:19:36.887Z,102038.81
2022-08-09T09:22:26.918Z,102038.81
2022-08-09T09:26:05.012Z,102042.13
2022-08-09T09:28:05.075Z,102046.59
2022-08-09T09:30:58.098Z,102034.59
2022-08-09T09:33:44.254Z,102041.72
2022-08-09T09:36:20.422Z,102031.81
2022-08-09T09:39:03.428Z,102032.16
2022-08-09T09:41:49.443Z,102028.50
2022-08-09T09:44:41.829Z,102031.56
2022-08-09T09:47:28.387Z,102023.38
2022-08-09T09:50:14.097Z,102027.38
2022-08-09T09:52:56.247Z,102031.19
2022-08-09T09:55:31.356Z,102021.72
2022-08-09T09:58:18.268Z,102017.56
2022-08-09T10:00:53.733Z,102014.09
2022-08-09T10:03:57.063Z,102023.19
2022-08-09T10:06:57.994Z,102022.03
2022-08-09T10:09:55.010Z,102014.31
2022-08-09T10:12:43.691Z,102013.09
2022-08-09T10:16:54.600Z,102006.78
2022-08-09T10:18:38.605Z,102009.72
2022-08-09T10:21:22.218Z,102005.50
2022-08-09T10:23:54.789Z,101999.84
2022-08-09T10:26:24.700Z,102003.38
2022-08-09T10:29:32.711Z,102007.59
2022-08-09T10:32:37.559Z,101995.94
2022-08-09T10:35:03.299Z,101996.41
2022-08-09T10:37:33.973Z,101993.00
2022-08-09T10:40:07.976Z,101987.50
2022-08-09T10:42:39.896Z,101988.34
2022-08-09T10:45:17.547Z,101992.44
2022-08-09T10:48:36.831Z,101987.81
2022-08-09T10:51:53.217Z,101989.06
2022-08-09T10:54:33.324Z,101981.94
2022-08-09T10:59:21.180Z,101984.25
2022-08-09T11:00:23.815Z,101987.41
2022-08-09T11:03:19.090Z,101982.91
2022-08-09T11:09:51.524Z,101987.25
2022-08-09T11:12:30.265Z,101978.72
2022-08-09T11:19:18.683Z,101974.38
2022-08-09T11:22:18.581Z,101973.16
2022-08-09T11:25:10.337Z,101978.34
2022-08-09T11:31:52.624Z,101976.25
2022-08-09T11:38:41.801Z,101982.09
2022-08-09T11:41:15.752Z,101975.13
2022-08-09T11:41:21.063Z,101981.81
2022-08-09T11:43:49.252Z,101971.91
2022-08-09T11:46:33.318Z,101974.59
2022-08-09T11:49:05.592Z,101970.72
2022-08-09T11:53:00.661Z,101976.44
2022-08-09T11:55:53.306Z,101978.44
2022-08-09T11:58:37.663Z,101970.81
2022-08-09T12:01:15.527Z,101974.88
2022-08-09T12:04:06.900Z,101970.56
2022-08-09T12:07:10.150Z,101969.97
2022-08-09T12:10:02.580Z,101972.66
2022-08-09T12:12:43.337Z,101959.09
2022-08-09T12:15:49.164Z,101963.81
2022-08-09T12:21:51.446Z,101958.00
2022-08-09T12:24:25.219Z,101970.31
2022-08-09T12:29:10.555Z,101967.16
2022-08-09T12:30:51.628Z,101963.66
2022-08-09T12:34:00.716Z,101963.41
2022-08-09T12:36:31.665Z,101969.75
2022-08-09T12:39:00.720Z,101965.91
2022-08-09T12:41:40.836Z,101962.72
2022-08-09T12:44:12.955Z,101957.19
2022-08-09T12:46:49.004Z,101954.97
2022-08-09T12:49:18.756Z,101953.41
2022-08-09T12:52:02.465Z,101945.81
2022-08-09T12:55:03.045Z,101946.09
2022-08-09T12:57:52.930Z,101943.44
2022-08-09T13:00:34.587Z,101938.31
2022-08-09T13:03:56.743Z,101939.34
2022-08-09T13:06:50.340Z,101914.91
2022-08-09T13:09:38.110Z,101929.34
2022-08-09T13:12:16.659Z,101918.00
2022-08-09T13:14:53.731Z,101919.13
2022-08-09T13:17:25.658Z,101927.16
2022-08-09T13:20:20.234Z,101925.22
2022-08-09T13:23:01.118Z,101930.06
2022-08-09T13:25:54.987Z,101926.81
2022-08-09T13:28:35.775Z,101930.84
2022-08-09T13:32:14.082Z,101917.94
2022-08-09T13:34:05.084Z,101920.03
2022-08-09T13:36:40.557Z,101917.38
2022-08-09T13:41:50.893Z,101920.03
2022-08-09T13:42:37.905Z,101922.34
2022-08-09T13:45:19.147Z,101923.34
2022-08-09T13:47:49.221Z,101925.50
2022-08-09T13:50:38.148Z,101925.59
2022-08-09T13:55:59.208Z,101934.56
2022-08-09T13:58:26.882Z,101933.81
2022-08-09T14:04:02.547Z,101933.72
2022-08-09T14:10:53.391Z,101911.88
2022-08-09T14:52:47.781Z,101989.91
2022-08-09T14:58:50.217Z,102003.94
2022-08-09T15:01:23.458Z,101995.44
2022-08-09T15:08:24.320Z,101969.31
2022-08-09T15:11:07.099Z,101964.19
2022-08-09T15:14:04.687Z,101967.25
2022-08-09T15:16:41.302Z,101963.06
2022-08-09T15:19:17.936Z,101971.47
2022-08-09T15:21:55.044Z,101968.09
2022-08-09T15:24:27.560Z,101968.50
2022-08-09T15:26:54.888Z,101968.41
2022-08-09T15:30:55.431Z,101971.19
2022-08-09T15:32:28.625Z,101964.31
2022-08-09T15:34:59.660Z,101964.72
2022-08-09T15:37:36.971Z,101962.06
2022-08-09T15:40:16.379Z,101956.47
2022-08-09T15:42:51.624Z,101963.97
2022-08-09T15:45:51.981Z,101950.50
2022-08-09T15:48:31.713Z,101947.19
2022-08-09T15:52:01.912Z,101951.38
2022-08-09T15:54:12.284Z,101956.34
2022-08-09T15:57:09.524Z,101954.69
2022-08-09T15:59:45.887Z,101957.06
2022-08-09T16:02:33.543Z,101951.47
2022-08-09T16:05:47.500Z,101953.38
2022-08-09T16:08:29.815Z,101941.75
2022-08-09T16:11:36.286Z,101947.81
2022-08-09T16:14:08.280Z,101950.81
2022-08-09T16:16:42.052Z,101946.06
2022-08-09T16:19:36.534Z,101950.88
2022-08-09T16:22:07.258Z,101946.50
2022-08-09T16:27:42.321Z,101946.53
2022-08-09T16:30:29.954Z,101941.75
2022-08-09T16:33:08.766Z,101942.94
2022-08-09T16:35:56.925Z,101946.00
2022-08-09T16:38:31.411Z,101948.41
2022-08-09T16:41:03.979Z,101950.38
2022-08-09T16:43:46.716Z,101947.53
2022-08-09T16:46:21.398Z,101951.97
2022-08-09T16:49:17.624Z,101948.00
2022-08-09T16:52:09.276Z,101947.31
2022-08-09T16:54:48.854Z,101948.66
2022-08-09T16:58:08.191Z,101946.06
2022-08-09T17:00:22.259Z,101947.13
2022-08-09T17:03:08.305Z,101954.06
2022-08-09T17:06:07.319Z,101959.09
2022-08-09T17:09:01.485Z,101964.34
2022-08-09T17:11:42.337Z,101966.41
2022-08-09T17:14:27.346Z,101964.34
2022-08-09T17:17:23.371Z,101965.00
2022-08-09T17:20:29.740Z,101960.13
2022-08-09T17:22:53.289Z,101968.81
2022-08-09T17:25:30.549Z,101967.44
2022-08-09T17:28:13.830Z,101977.16
2022-08-09T17:30:48.160Z,101976.28
2022-08-09T17:33:22.104Z,101979.91
2022-08-09T17:35:50.712Z,101974.81
2022-08-09T17:38:32.207Z,101985.97
2022-08-09T17:41:38.521Z,101982.41
2022-08-09T17:44:38.037Z,101985.16
2022-08-09T17:47:10.612Z,101982.97
2022-08-09T17:49:50.816Z,101984.72
2022-08-09T17:52:32.582Z,101988.06
2022-08-09T17:55:17.336Z,101988.22
2022-08-09T18:00:46.359Z,101990.41
2022-08-09T18:03:39.173Z,102000.72
2022-08-09T18:06:14.829Z,101999.47
2022-08-09T18:08:56.284Z,101997.41
2022-08-09T18:11:24.065Z,101993.13
2022-08-09T18:13:57.204Z,101997.13
2022-08-09T18:16:30.967Z,102001.97
2022-08-09T18:19:04.247Z,102007.22
2022-08-09T18:21:50.457Z,102010.88
2022-08-09T18:24:20.004Z,102016.94
2022-08-09T18:26:54.684Z,102020.28
2022-08-09T18:30:38.594Z,102013.88
2022-08-09T18:32:10.893Z,102018.31
2022-08-09T18:34:39.098Z,102021.72
2022-08-09T18:37:10.603Z,102017.03
2022-08-09T18:39:54.978Z,102025.91
2022-08-09T18:42:31.789Z,102023.28
2022-08-09T18:45:00.833Z,102026.94
2022-08-09T18:47:37.346Z,102017.72
2022-08-09T18:50:09.000Z,102024.22
2022-08-09T18:52:44.983Z,102033.72
2022-08-09T18:55:29.163Z,102031.69
2022-08-09T18:58:07.891Z,102024.72
2022-08-09T19:00:45.109Z,102031.34
2022-08-09T19:03:54.476Z,102032.69
2022-08-09T19:06:23.591Z,102049.06
2022-08-09T19:09:06.421Z,102053.25
2022-08-09T19:11:35.432Z,102055.66
2022-08-09T19:14:07.241Z,102058.66
2022-08-09T19:16:38.783Z,102060.88
2022-08-09T19:19:25.406Z,102064.38
2022-08-09T19:22:04.594Z,102061.09
2022-08-09T19:24:38.619Z,102052.13
2022-08-09T19:27:23.752Z,102055.63
2022-08-09T19:30:20.857Z,102055.56
2022-08-09T19:32:53.194Z,102063.88
2022-08-09T19:35:26.667Z,102069.03
2022-08-09T19:37:57.690Z,102068.78
2022-08-09T19:40:34.087Z,102069.34
2022-08-09T19:43:10.277Z,102071.78
2022-08-09T19:46:04.102Z,102079.63
2022-08-09T19:49:02.095Z,102081.88
2022-08-09T19:51:25.564Z,102077.63
2022-08-09T19:54:02.393Z,102074.38
2022-08-09T19:59:40.509Z,102073.09
2022-08-09T20:04:06.886Z,102072.19
2022-08-09T20:05:01.718Z,102071.59
2022-08-09T20:07:56.842Z,102072.59
2022-08-09T20:10:37.525Z,102082.34
2022-08-09T20:13:10.933Z,102087.50
2022-08-09T20:16:37.337Z,102080.19
2022-08-09T20:18:33.463Z,102085.13
2022-08-09T20:21:09.855Z,102090.41
2022-08-09T20:23:52.672Z,102080.72
2022-08-09T20:26:26.691Z,102088.63
2022-08-09T20:28:55.372Z,102082.84
2022-08-09T20:31:23.459Z,102086.59
2022-08-09T20:34:02.124Z,102082.94
2022-08-09T20:36:35.858Z,102086.41
2022-08-09T20:39:28.805Z,102082.66
2022-08-09T20:41:59.759Z,102082.13
2022-08-09T20:44:50.887Z,102088.19
2022-08-09T20:47:45.809Z,102088.59
2022-08-09T20:50:47.310Z,102086.84
2022-08-09T20:53:18.611Z,102091.25
2022-08-09T20:56:02.002Z,102086.63
2022-08-09T20:58:32.864Z,102090.31
2022-08-09T21:01:32.661Z,102096.03
2022-08-09T21:04:14.140Z,102098.00
2022-08-09T21:06:46.729Z,102102.31
2022-08-09T21:09:32.589Z,102093.47
2022-08-09T21:14:40.313Z,102096.03
2022-08-09T21:18:22.402Z,102103.34
2022-08-09T21:20:17.072Z,102093.72
2022-08-09T21:22:52.436Z,102107.28
2022-08-09T21:25:43.966Z,102109.94
2022-08-09T21:28:34.832Z,102108.50
2022-08-09T21:31:16.386Z,102107.94
2022-08-09T21:33:58.659Z,102114.78
2022-08-09T21:36:32.291Z,102115.38
2022-08-09T21:39:00.205Z,102120.81
2022-08-09T21:42:04.390Z,102116.44
2022-08-09T21:44:32.960Z,102120.38
2022-08-09T21:47:09.301Z,102112.00
2022-08-09T21:49:43.197Z,102120.03
2022-08-09T21:52:18.259Z,102115.56
2022-08-09T21:55:03.085Z,102120.00
2022-08-09T21:57:39.071Z,102116.13
2022-08-09T22:00:34.645Z,102120.97
2022-08-09T22:03:12.640Z,102116.53
2022-08-09T22:05:51.247Z,102115.81
2022-08-09T22:08:22.956Z,102117.16
2022-08-09T22:11:48.990Z,102119.75
2022-08-09T22:13:43.630Z,102114.63
2022-08-09T22:16:26.653Z,102120.53
2022-08-09T22:18:59.327Z,102107.84
2022-08-09T22:21:45.105Z,102111.78
2022-08-09T22:24:24.186Z,102109.66
2022-08-09T22:27:22.141Z,102103.34
2022-08-09T22:29:57.546Z,102107.84
2022-08-09T22:32:42.716Z,102114.03
2022-08-09T22:36:01.532Z,102111.47
2022-08-09T22:38:07.216Z,102112.03
2022-08-09T22:40:35.811Z,102121.41
2022-08-09T22:43:16.713Z,102118.47
2022-08-09T22:48:12.785Z,102127.91
2022-08-09T22:48:50.288Z,102121.97
2022-08-09T22:51:24.216Z,102124.34
2022-08-09T22:54:02.230Z,102128.09
2022-08-09T22:56:33.936Z,102126.50
2022-08-09T22:59:05.783Z,102123.28
2022-08-09T23:01:52.140Z,102120.88
2022-08-09T23:04:20.056Z,102117.53
2022-08-09T23:07:11.143Z,102119.97
2022-08-09T23:09:44.357Z,102121.72
2022-08-09T23:12:11.812Z,102120.22
2022-08-09T23:14:42.185Z,102119.03
2022-08-09T23:17:11.130Z,102119.09
2022-08-09T23:20:06.772Z,102117.41
2022-08-09T23:22:26.325Z,102119.28
2022-08-09T23:24:54.146Z,102116.69
2022-08-09T23:27:21.629Z,102118.91
2022-08-09T23:29:49.178Z,102120.06
2022-08-09T23:32:16.920Z,102115.63
2022-08-09T23:34:52.468Z,102110.44
2022-08-09T23:37:25.531Z,102118.50
2022-08-09T23:39:53.428Z,102115.25
2022-08-09T23:42:20.885Z,102116.38
2022-08-09T23:44:48.602Z,102125.88
2022-08-09T23:47:20.572Z,102118.38
2022-08-09T23:49:48.542Z,102118.44
2022-08-09T23:52:16.606Z,102118.13
2022-08-09T23:54:45.448Z,102120.81
2022-08-09T23:57:13.206Z,102115.31
